sensor_id;sensor_type;location;lat;lon;timestamp;pressure;altitude;pressure_sealevel;temperature;humidity
46007;BME280;31738;50.188;8.524;2023-07-13T00:01:18;98764.28;;;21.88;44.79
46007;BME280;31738;50.188;8.524;2023-07-13T00:03:44;98759.16;;;21.86;44.54
46007;BME280;31738;50.188;8.524;2023-07-13T00:06:10;98768.16;;;21.87;44.76
46007;BME280;31738;50.188;8.524;2023-07-13T00:08:35;98768.56;;;21.89;45.25
46007;BME280;31738;50.188;8.524;2023-07-13T00:11:02;98756.88;;;21.88;44.59
46007;BME280;31738;50.188;8.524;2023-07-13T00:13:28;98763.13;;;21.89;44.63
46007;BME280;31738;50.188;8.524;2023-07-13T00:15:56;98758.47;;;21.89;44.74
46007;BME280;31738;50.188;8.524;2023-07-13T00:18:22;98759.16;;;21.86;44.40
46007;BME280;31738;50.188;8.524;2023-07-13T00:20:47;98763.63;;;21.79;44.65
46007;BME280;31738;50.188;8.524;2023-07-13T00:23:13;98766.69;;;21.77;45.24
46007;BME280;31738;50.188;8.524;2023-07-13T00:25:39;98760.31;;;21.73;44.89
46007;BME280;31738;50.188;8.524;2023-07-13T00:28:05;98764.16;;;21.72;45.40
46007;BME280;31738;50.188;8.524;2023-07-13T00:30:30;98758.63;;;21.69;45.43
46007;BME280;31738;50.188;8.524;2023-07-13T00:32:57;98761.94;;;21.62;45.21
46007;BME280;31738;50.188;8.524;2023-07-13T00:35:23;98766.94;;;21.60;45.38
46007;BME280;31738;50.188;8.524;2023-07-13T00:37:48;98754.44;;;21.59;45.67
46007;BME280;31738;50.188;8.524;2023-07-13T00:40:15;98763.31;;;21.56;45.63
46007;BME280;31738;50.188;8.524;2023-07-13T00:42:41;98767.41;;;21.50;45.38
46007;BME280;31738;50.188;8.524;2023-07-13T00:47:53;98765.13;;;21.40;46.05
46007;BME280;31738;50.188;8.524;2023-07-13T00:50:22;98767.88;;;21.40;45.83
46007;BME280;31738;50.188;8.524;2023-07-13T00:52:49;98761.16;;;21.38;46.31
46007;BME280;31738;50.188;8.524;2023-07-13T00:55:17;98760.38;;;21.37;46.59
46007;BME280;31738;50.188;8.524;2023-07-13T00:57:43;98761.97;;;21.38;46.08
46007;BME280;31738;50.188;8.524;2023-07-13T01:00:10;98761.50;;;21.36;46.78
46007;BME280;31738;50.188;8.524;2023-07-13T01:02:39;98766.84;;;21.33;46.59
46007;BME280;31738;50.188;8.524;2023-07-13T01:05:12;98766.03;;;21.32;47.00
46007;BME280;31738;50.188;8.524;2023-07-13T01:07:40;98771.28;;;21.25;46.63
46007;BME280;31738;50.188;8.524;2023-07-13T01:10:06;98768.00;;;21.20;46.20
46007;BME280;31738;50.188;8.524;2023-07-13T01:12:32;98766.31;;;21.15;46.57
46007;BME280;31738;50.188;8.524;2023-07-13T01:14:58;98765.84;;;21.13;46.48
46007;BME280;31738;50.188;8.524;2023-07-13T01:17:26;98765.59;;;21.06;46.65
46007;BME280;31738;50.188;8.524;2023-07-13T01:19:52;98768.25;;;21.03;46.66
46007;BME280;31738;50.188;8.524;2023-07-13T01:22:18;98764.25;;;21.00;47.02
46007;BME280;31738;50.188;8.524;2023-07-13T01:24:46;98761.75;;;20.95;46.63
46007;BME280;31738;50.188;8.524;2023-07-13T01:27:21;98752.28;;;20.93;47.21
46007;BME280;31738;50.188;8.524;2023-07-13T01:29:47;98749.88;;;20.91;46.53
46007;BME280;31738;50.188;8.524;2023-07-13T01:32:17;98747.63;;;20.93;47.09
46007;BME280;31738;50.188;8.524;2023-07-13T01:34:46;98749.78;;;20.88;46.46
46007;BME280;31738;50.188;8.524;2023-07-13T01:37:13;98735.56;;;20.82;46.25
46007;BME280;31738;50.188;8.524;2023-07-13T01:39:38;98741.03;;;20.82;46.13
46007;BME280;31738;50.188;8.524;2023-07-13T01:42:04;98747.97;;;20.80;45.71
46007;BME280;31738;50.188;8.524;2023-07-13T01:44:30;98750.69;;;20.80;46.48
46007;BME280;31738;50.188;8.524;2023-07-13T01:46:55;98761.47;;;20.76;45.89
46007;BME280;31738;50.188;8.524;2023-07-13T01:49:21;98765.09;;;20.68;45.17
46007;BME280;31738;50.188;8.524;2023-07-13T01:51:48;98752.25;;;20.69;45.42
46007;BME280;31738;50.188;8.524;2023-07-13T01:54:14;98771.69;;;20.67;44.65
46007;BME280;31738;50.188;8.524;2023-07-13T01:56:39;98773.16;;;20.65;44.04
46007;BME280;31738;50.188;8.524;2023-07-13T01:59:07;98785.66;;;20.66;44.13
46007;BME280;31738;50.188;8.524;2023-07-13T02:01:33;98791.44;;;20.64;44.19
46007;BME280;31738;50.188;8.524;2023-07-13T02:03:58;98798.81;;;20.64;43.97
46007;BME280;31738;50.188;8.524;2023-07-13T02:06:24;98791.09;;;20.66;44.03
46007;BME280;31738;50.188;8.524;2023-07-13T02:08:49;98784.84;;;20.65;43.95
46007;BME280;31738;50.188;8.524;2023-07-13T02:11:15;98795.75;;;20.65;44.09
46007;BME280;31738;50.188;8.524;2023-07-13T02:13:40;98794.97;;;20.65;44.15
46007;BME280;31738;50.188;8.524;2023-07-13T02:16:06;98794.16;;;20.64;44.03
46007;BME280;31738;50.188;8.524;2023-07-13T02:18:32;98796.44;;;20.62;44.02
46007;BME280;31738;50.188;8.524;2023-07-13T02:20:57;98799.97;;;20.63;43.74
46007;BME280;31738;50.188;8.524;2023-07-13T02:23:24;98795.97;;;20.60;43.99
46007;BME280;31738;50.188;8.524;2023-07-13T02:25:49;98802.56;;;20.59;44.20
46007;BME280;31738;50.188;8.524;2023-07-13T02:28:19;98800.06;;;20.54;44.04
46007;BME280;31738;50.188;8.524;2023-07-13T02:30:44;98808.25;;;20.54;43.69
46007;BME280;31738;50.188;8.524;2023-07-13T02:33:10;98809.69;;;20.52;43.59
46007;BME280;31738;50.188;8.524;2023-07-13T02:35:35;98818.88;;;20.47;42.93
46007;BME280;31738;50.188;8.524;2023-07-13T02:38:00;98822.75;;;20.46;42.99
46007;BME280;31738;50.188;8.524;2023-07-13T02:40:26;98826.56;;;20.45;42.92
46007;BME280;31738;50.188;8.524;2023-07-13T02:42:51;98814.78;;;20.41;43.36
46007;BME280;31738;50.188;8.524;2023-07-13T02:45:17;98821.34;;;20.40;42.93
46007;BME280;31738;50.188;8.524;2023-07-13T02:47:55;98822.03;;;20.37;42.94
46007;BME280;31738;50.188;8.524;2023-07-13T02:50:20;98822.56;;;20.30;43.07
46007;BME280;31738;50.188;8.524;2023-07-13T02:52:46;98829.00;;;20.26;42.89
46007;BME280;31738;50.188;8.524;2023-07-13T02:55:11;98837.84;;;20.23;42.39
46007;BME280;31738;50.188;8.524;2023-07-13T02:57:37;98838.84;;;20.18;42.75
46007;BME280;31738;50.188;8.524;2023-07-13T03:00:03;98846.22;;;20.18;42.54
46007;BME280;31738;50.188;8.524;2023-07-13T03:02:34;98846.22;;;20.18;42.80
46007;BME280;31738;50.188;8.524;2023-07-13T03:05:00;98849.28;;;20.16;42.98
46007;BME280;31738;50.188;8.524;2023-07-13T03:07:26;98853.63;;;20.09;42.32
46007;BME280;31738;50.188;8.524;2023-07-13T03:09:56;98842.75;;;20.09;43.20
46007;BME280;31738;50.188;8.524;2023-07-13T03:12:24;98866.00;;;20.06;43.02
46007;BME280;31738;50.188;8.524;2023-07-13T03:14:50;98858.84;;;20.02;44.43
46007;BME280;31738;50.188;8.524;2023-07-13T03:17:17;98846.06;;;19.94;45.23
46007;BME280;31738;50.188;8.524;2023-07-13T03:19:42;98848.06;;;19.85;45.80
46007;BME280;31738;50.188;8.524;2023-07-13T03:22:09;98838.50;;;19.79;46.37
46007;BME280;31738;50.188;8.524;2023-07-13T03:24:36;98840.94;;;19.72;46.83
46007;BME280;31738;50.188;8.524;2023-07-13T03:27:04;98828.63;;;19.66;47.52
46007;BME280;31738;50.188;8.524;2023-07-13T03:29:31;98827.41;;;19.55;47.98
46007;BME280;31738;50.188;8.524;2023-07-13T03:31:56;98832.78;;;19.43;48.04
46007;BME280;31738;50.188;8.524;2023-07-13T03:34:22;98834.91;;;19.29;48.43
46007;BME280;31738;50.188;8.524;2023-07-13T03:36:48;98840.53;;;19.24;48.88
46007;BME280;31738;50.188;8.524;2023-07-13T03:39:14;98834.31;;;19.15;49.42
46007;BME280;31738;50.188;8.524;2023-07-13T03:41:46;98834.19;;;19.11;49.78
46007;BME280;31738;50.188;8.524;2023-07-13T03:44:12;98829.06;;;19.10;50.01
46007;BME280;31738;50.188;8.524;2023-07-13T03:46:38;98827.78;;;19.07;50.43
46007;BME280;31738;50.188;8.524;2023-07-13T03:49:04;98830.06;;;19.05;49.89
46007;BME280;31738;50.188;8.524;2023-07-13T03:51:30;98824.47;;;19.02;50.58
46007;BME280;31738;50.188;8.524;2023-07-13T03:53:56;98821.59;;;18.98;50.72
46007;BME280;31738;50.188;8.524;2023-07-13T03:56:22;98824.19;;;18.95;50.60
46007;BME280;31738;50.188;8.524;2023-07-13T03:58:50;98821.63;;;18.90;51.26
46007;BME280;31738;50.188;8.524;2023-07-13T04:01:19;98814.78;;;18.84;51.59
46007;BME280;31738;50.188;8.524;2023-07-13T04:03:45;98821.97;;;18.80;52.23
46007;BME280;31738;50.188;8.524;2023-07-13T04:06:23;98816.53;;;18.80;52.26
46007;BME280;31738;50.188;8.524;2023-07-13T04:08:53;98805.84;;;18.75;52.74
46007;BME280;31738;50.188;8.524;2023-07-13T04:11:20;98796.72;;;18.70;53.12
46007;BME280;31738;50.188;8.524;2023-07-13T04:13:46;98802.97;;;18.71;53.92
46007;BME280;31738;50.188;8.524;2023-07-13T04:16:16;98794.34;;;18.69;54.02
46007;BME280;31738;50.188;8.524;2023-07-13T04:18:42;98793.09;;;18.66;54.22
46007;BME280;31738;50.188;8.524;2023-07-13T04:21:08;98794.22;;;18.65;54.28
46007;BME280;31738;50.188;8.524;2023-07-13T04:23:35;98791.19;;;18.67;55.11
46007;BME280;31738;50.188;8.524;2023-07-13T04:26:01;98794.22;;;18.65;55.08
46007;BME280;31738;50.188;8.524;2023-07-13T04:28:27;98791.00;;;18.63;55.51
46007;BME280;31738;50.188;8.524;2023-07-13T04:30:53;98786.34;;;18.64;56.08
46007;BME280;31738;50.188;8.524;2023-07-13T04:33:19;98786.34;;;18.64;56.13
46007;BME280;31738;50.188;8.524;2023-07-13T04:35:52;98774.88;;;18.58;56.61
46007;BME280;31738;50.188;8.524;2023-07-13T04:38:20;98780.16;;;18.55;56.58
46007;BME280;31738;50.188;8.524;2023-07-13T04:40:46;98768.19;;;18.56;56.85
46007;BME280;31738;50.188;8.524;2023-07-13T04:43:12;98768.97;;;18.56;57.32
46007;BME280;31738;50.188;8.524;2023-07-13T04:45:38;98766.72;;;18.58;57.25
46007;BME280;31738;50.188;8.524;2023-07-13T04:48:04;98764.50;;;18.60;57.71
46007;BME280;31738;50.188;8.524;2023-07-13T04:50:29;98766.06;;;18.61;57.61
46007;BME280;31738;50.188;8.524;2023-07-13T04:52:55;98764.63;;;18.64;57.99
46007;BME280;31738;50.188;8.524;2023-07-13T04:55:20;98762.38;;;18.66;57.66
46007;BME280;31738;50.188;8.524;2023-07-13T04:57:46;98755.19;;;18.70;57.91
46007;BME280;31738;50.188;8.524;2023-07-13T05:00:13;98754.22;;;18.75;58.24
46007;BME280;31738;50.188;8.524;2023-07-13T05:02:39;98757.53;;;18.80;58.54
46007;BME280;31738;50.188;8.524;2023-07-13T05:05:06;98756.72;;;18.80;58.65
46007;BME280;31738;50.188;8.524;2023-07-13T05:07:31;98754.81;;;18.80;59.00
46007;BME280;31738;50.188;8.524;2023-07-13T05:09:59;98762.31;;;18.83;58.77
46007;BME280;31738;50.188;8.524;2023-07-13T05:12:25;98764.72;;;18.85;59.09
46007;BME280;31738;50.188;8.524;2023-07-13T05:14:51;98771.09;;;18.89;59.12
46007;BME280;31738;50.188;8.524;2023-07-13T05:17:16;98763.41;;;18.91;59.36
46007;BME280;31738;50.188;8.524;2023-07-13T05:19:42;98771.72;;;18.94;59.36
46007;BME280;31738;50.188;8.524;2023-07-13T05:22:07;98772.97;;;18.97;59.52
46007;BME280;31738;50.188;8.524;2023-07-13T05:24:33;98777.75;;;19.00;59.47
46007;BME280;31738;50.188;8.524;2023-07-13T05:26:59;98783.34;;;19.03;59.19
46007;BME280;31738;50.188;8.524;2023-07-13T05:29:24;98786.22;;;19.07;57.64
46007;BME280;31738;50.188;8.524;2023-07-13T05:31:50;98784.91;;;19.13;57.93
46007;BME280;31738;50.188;8.524;2023-07-13T05:34:16;98790.13;;;19.18;56.81
46007;BME280;31738;50.188;8.524;2023-07-13T05:36:41;98790.78;;;19.23;57.11
46007;BME280;31738;50.188;8.524;2023-07-13T05:39:07;98789.81;;;19.28;57.88
46007;BME280;31738;50.188;8.524;2023-07-13T05:41:32;98798.91;;;19.32;56.83
46007;BME280;31738;50.188;8.524;2023-07-13T05:43:58;98795.84;;;19.33;56.64
46007;BME280;31738;50.188;8.524;2023-07-13T05:46:24;98804.16;;;19.37;55.82
46007;BME280;31738;50.188;8.524;2023-07-13T05:48:49;98812.47;;;19.40;55.11
46007;BME280;31738;50.188;8.524;2023-07-13T05:51:15;98812.59;;;19.44;55.45
46007;BME280;31738;50.188;8.524;2023-07-13T05:53:40;98822.38;;;19.45;54.73
46007;BME280;31738;50.188;8.524;2023-07-13T05:56:06;98821.72;;;19.48;53.92
46007;BME280;31738;50.188;8.524;2023-07-13T05:58:31;98831.59;;;19.52;53.71
46007;BME280;31738;50.188;8.524;2023-07-13T06:01:02;98832.69;;;19.60;54.05
46007;BME280;31738;50.188;8.524;2023-07-13T06:03:29;98828.81;;;19.61;53.24
46007;BME280;31738;50.188;8.524;2023-07-13T06:05:54;98838.06;;;19.68;53.64
46007;BME280;31738;50.188;8.524;2023-07-13T06:08:20;98844.13;;;19.74;53.48
46007;BME280;31738;50.188;8.524;2023-07-13T06:10:45;98847.09;;;19.81;53.96
46007;BME280;31738;50.188;8.524;2023-07-13T06:13:11;98845.66;;;19.83;53.89
46007;BME280;31738;50.188;8.524;2023-07-13T06:15:36;98850.13;;;19.88;53.08
46007;BME280;31738;50.188;8.524;2023-07-13T06:18:02;98856.50;;;19.92;52.74
46007;BME280;31738;50.188;8.524;2023-07-13T06:20:28;98857.88;;;19.98;53.09
46007;BME280;31738;50.188;8.524;2023-07-13T06:22:54;98858.03;;;20.01;52.59
46007;BME280;31738;50.188;8.524;2023-07-13T06:25:20;98855.88;;;20.07;52.30
46007;BME280;31738;50.188;8.524;2023-07-13T06:27:45;98863.56;;;20.13;51.75
46007;BME280;31738;50.188;8.524;2023-07-13T06:30:11;98870.56;;;20.23;51.19
46007;BME280;31738;50.188;8.524;2023-07-13T06:32:37;98870.81;;;20.30;51.09
46007;BME280;31738;50.188;8.524;2023-07-13T06:35:03;98872.00;;;20.41;51.40
46007;BME280;31738;50.188;8.524;2023-07-13T06:37:29;98881.84;;;20.54;51.33
46007;BME280;31738;50.188;8.524;2023-07-13T06:39:54;98889.59;;;20.64;49.96
46007;BME280;31738;50.188;8.524;2023-07-13T06:42:20;98890.28;;;20.73;50.11
46007;BME280;31738;50.188;8.524;2023-07-13T06:44:45;98886.03;;;20.84;49.65
46007;BME280;31738;50.188;8.524;2023-07-13T06:47:11;98892.69;;;20.95;49.81
46007;BME280;31738;50.188;8.524;2023-07-13T06:49:36;98908.41;;;21.10;49.00
46007;BME280;31738;50.188;8.524;2023-07-13T06:52:02;98912.72;;;21.23;48.18
46007;BME280;31738;50.188;8.524;2023-07-13T06:54:27;98911.63;;;21.36;47.93
46007;BME280;31738;50.188;8.524;2023-07-13T06:56:53;98925.41;;;21.52;46.99
46007;BME280;31738;50.188;8.524;2023-07-13T06:59:19;98910.97;;;21.63;47.18
46007;BME280;31738;50.188;8.524;2023-07-13T07:01:44;98924.63;;;21.75;46.78
46007;BME280;31738;50.188;8.524;2023-07-13T07:04:10;98927.81;;;21.89;46.29
46007;BME280;31738;50.188;8.524;2023-07-13T07:06:35;98933.28;;;22.02;46.00
46007;BME280;31738;50.188;8.524;2023-07-13T07:09:01;98934.06;;;22.14;45.60
46007;BME280;31738;50.188;8.524;2023-07-13T07:11:26;98948.97;;;22.29;45.20
46007;BME280;31738;50.188;8.524;2023-07-13T07:13:52;98966.03;;;22.38;44.13
46007;BME280;31738;50.188;8.524;2023-07-13T07:16:18;98966.34;;;22.48;44.13
46007;BME280;31738;50.188;8.524;2023-07-13T07:18:45;98968.28;;;22.60;44.20
46007;BME280;31738;50.188;8.524;2023-07-13T07:21:11;98982.81;;;22.76;43.39
46007;BME280;31738;50.188;8.524;2023-07-13T07:23:37;98991.00;;;22.88;43.24
46007;BME280;31738;50.188;8.524;2023-07-13T07:26:02;98980.34;;;22.98;42.74
46007;BME280;31738;50.188;8.524;2023-07-13T07:28:28;98986.91;;;23.09;42.65
46007;BME280;31738;50.188;8.524;2023-07-13T07:30:56;98994.25;;;23.21;42.30
46007;BME280;31738;50.188;8.524;2023-07-13T07:33:22;99005.22;;;23.33;41.80
46007;BME280;31738;50.188;8.524;2023-07-13T07:35:47;99005.91;;;23.45;41.81
46007;BME280;31738;50.188;8.524;2023-07-13T07:38:13;99015.56;;;23.55;41.74
46007;BME280;31738;50.188;8.524;2023-07-13T07:40:39;99019.03;;;23.68;41.19
46007;BME280;31738;50.188;8.524;2023-07-13T07:43:06;99029.81;;;23.76;40.55
46007;BME280;31738;50.188;8.524;2023-07-13T07:45:32;99036.66;;;23.82;40.20
46007;BME280;31738;50.188;8.524;2023-07-13T07:47:58;99029.75;;;23.88;40.44
46007;BME280;31738;50.188;8.524;2023-07-13T07:50:25;99031.84;;;23.95;40.40
46007;BME280;31738;50.188;8.524;2023-07-13T07:52:51;99037.63;;;24.05;40.04
46007;BME280;31738;50.188;8.524;2023-07-13T07:55:16;99032.78;;;24.14;40.66
46007;BME280;31738;50.188;8.524;2023-07-13T07:57:43;99043.09;;;24.21;40.10
46007;BME280;31738;50.188;8.524;2023-07-13T08:00:09;99047.09;;;24.23;39.73
46007;BME280;31738;50.188;8.524;2023-07-13T08:02:39;99041.31;;;24.28;39.92
46007;BME280;31738;50.188;8.524;2023-07-13T08:05:07;99040.72;;;24.35;39.92
46007;BME280;31738;50.188;8.524;2023-07-13T08:07:33;99042.81;;;24.41;39.70
46007;BME280;31738;50.188;8.524;2023-07-13T08:09:59;99045.44;;;24.53;39.34
46007;BME280;31738;50.188;8.524;2023-07-13T08:12:25;99045.00;;;24.67;39.00
46007;BME280;31738;50.188;8.524;2023-07-13T08:14:50;99054.19;;;24.74;38.76
46007;BME280;31738;50.188;8.524;2023-07-13T08:17:23;99050.19;;;24.87;38.60
46007;BME280;31738;50.188;8.524;2023-07-13T08:19:49;99059.72;;;24.93;38.14
46007;BME280;31738;50.188;8.524;2023-07-13T08:22:15;99061.47;;;25.01;38.07
46007;BME280;31738;50.188;8.524;2023-07-13T08:24:40;99063.19;;;25.09;38.25
46007;BME280;31738;50.188;8.524;2023-07-13T08:27:08;99064.94;;;24.98;37.89
46007;BME280;31738;50.188;8.524;2023-07-13T08:29:33;99063.69;;;24.96;38.27
46007;BME280;31738;50.188;8.524;2023-07-13T08:31:59;99066.06;;;24.97;38.37
46007;BME280;31738;50.188;8.524;2023-07-13T08:34:24;99071.88;;;25.11;38.21
46007;BME280;31738;50.188;8.524;2023-07-13T08:36:50;99083.16;;;25.26;37.46
46007;BME280;31738;50.188;8.524;2023-07-13T08:39:15;99070.47;;;25.37;37.44
46007;BME280;31738;50.188;8.524;2023-07-13T08:41:41;99078.47;;;25.45;37.96
46007;BME280;31738;50.188;8.524;2023-07-13T08:44:18;99067.47;;;25.64;38.15
46007;BME280;31738;50.188;8.524;2023-07-13T08:46:47;99064.44;;;25.69;38.02
46007;BME280;31738;50.188;8.524;2023-07-13T08:49:16;99075.25;;;25.81;37.15
46007;BME280;31738;50.188;8.524;2023-07-13T08:51:53;99079.31;;;25.91;36.59
46007;BME280;31738;50.188;8.524;2023-07-13T08:54:35;99092.06;;;25.99;35.82
46007;BME280;31738;50.188;8.524;2023-07-13T08:57:13;99089.03;;;26.04;36.52
46007;BME280;31738;50.188;8.524;2023-07-13T08:59:40;99100.31;;;25.99;34.97
46007;BME280;31738;50.188;8.524;2023-07-13T09:02:26;99095.97;;;25.98;35.27
46007;BME280;31738;50.188;8.524;2023-07-13T09:05:02;99090.19;;;26.03;36.43
46007;BME280;31738;50.188;8.524;2023-07-13T09:10:20;99099.97;;;26.23;36.52
46007;BME280;31738;50.188;8.524;2023-07-13T09:15:39;99112.41;;;26.62;34.36
46007;BME280;31738;50.188;8.524;2023-07-13T09:20:59;99111.97;;;26.83;34.74
46007;BME280;31738;50.188;8.524;2023-07-13T09:23:27;99116.09;;;26.96;33.97
46007;BME280;31738;50.188;8.524;2023-07-13T09:26:01;99099.69;;;27.06;34.50
46007;BME280;31738;50.188;8.524;2023-07-13T09:28:32;99103.09;;;27.22;34.66
46007;BME280;31738;50.188;8.524;2023-07-13T09:31:13;99105.81;;;27.52;33.88
46007;BME280;31738;50.188;8.524;2023-07-13T09:33:39;99109.88;;;27.61;33.25
46007;BME280;31738;50.188;8.524;2023-07-13T09:36:18;99117.66;;;27.85;32.94
46007;BME280;31738;50.188;8.524;2023-07-13T09:38:44;99118.81;;;27.84;32.21
46007;BME280;31738;50.188;8.524;2023-07-13T09:41:33;99127.75;;;27.74;32.21
46007;BME280;31738;50.188;8.524;2023-07-13T09:44:12;99137.19;;;27.40;32.33
46007;BME280;31738;50.188;8.524;2023-07-13T09:46:43;99136.69;;;27.31;31.86
46007;BME280;31738;50.188;8.524;2023-07-13T09:49:12;99137.28;;;27.47;32.43
46007;BME280;31738;50.188;8.524;2023-07-13T09:51:41;99135.00;;;27.56;31.81
46007;BME280;31738;50.188;8.524;2023-07-13T09:54:22;99131.84;;;27.54;31.46
46007;BME280;31738;50.188;8.524;2023-07-13T09:56:57;99127.97;;;27.59;31.64
46007;BME280;31738;50.188;8.524;2023-07-13T09:59:26;99139.13;;;27.69;32.24
46007;BME280;31738;50.188;8.524;2023-07-13T10:01:52;99140.88;;;27.84;32.12
46007;BME280;31738;50.188;8.524;2023-07-13T10:04:19;99137.88;;;27.96;31.37
46007;BME280;31738;50.188;8.524;2023-07-13T10:06:46;99145.81;;;28.01;31.74
46007;BME280;31738;50.188;8.524;2023-07-13T10:09:16;99148.16;;;27.99;30.82
46007;BME280;31738;50.188;8.524;2023-07-13T10:11:42;99156.69;;;27.87;30.98
46007;BME280;31738;50.188;8.524;2023-07-13T10:14:21;99150.41;;;27.90;31.51
46007;BME280;31738;50.188;8.524;2023-07-13T10:16:54;99154.78;;;27.91;31.29
46007;BME280;31738;50.188;8.524;2023-07-13T10:19:31;99140.41;;;28.12;31.27
46007;BME280;31738;50.188;8.524;2023-07-13T10:21:58;99141.34;;;28.26;31.10
46007;BME280;31738;50.188;8.524;2023-07-13T10:24:27;99140.59;;;28.29;30.83
46007;BME280;31738;50.188;8.524;2023-07-13T10:27:02;99139.09;;;28.42;30.95
46007;BME280;31738;50.188;8.524;2023-07-13T10:29:36;99149.13;;;28.58;30.94
46007;BME280;31738;50.188;8.524;2023-07-13T10:32:07;99131.47;;;28.69;30.96
46007;BME280;31738;50.188;8.524;2023-07-13T10:34:34;99122.06;;;28.81;30.58
46007;BME280;31738;50.188;8.524;2023-07-13T10:37:00;99137.97;;;28.98;30.26
46007;BME280;31738;50.188;8.524;2023-07-13T10:39:28;99142.03;;;29.07;30.26
46007;BME280;31738;50.188;8.524;2023-07-13T10:41:58;99139.69;;;29.16;29.63
46007;BME280;31738;50.188;8.524;2023-07-13T10:44:26;99145.66;;;29.25;29.47
46007;BME280;31738;50.188;8.524;2023-07-13T10:47:02;99147.75;;;29.46;29.05
46007;BME280;31738;50.188;8.524;2023-07-13T10:49:31;99137.44;;;29.36;29.36
46007;BME280;31738;50.188;8.524;2023-07-13T10:51:56;99141.88;;;29.51;29.32
46007;BME280;31738;50.188;8.524;2023-07-13T10:59:38;99165.91;;;29.40;28.66
46007;BME280;31738;50.188;8.524;2023-07-13T11:02:13;99170.16;;;29.27;29.30
46007;BME280;31738;50.188;8.524;2023-07-13T11:04:52;99176.13;;;29.36;28.41
46007;BME280;31738;50.188;8.524;2023-07-13T11:07:28;99159.72;;;29.64;28.74
46007;BME280;31738;50.188;8.524;2023-07-13T11:09:58;99156.22;;;29.74;29.12
46007;BME280;31738;50.188;8.524;2023-07-13T11:17:36;99143.06;;;29.57;29.14
46007;BME280;31738;50.188;8.524;2023-07-13T11:25:38;99149.53;;;29.96;28.28
46007;BME280;31738;50.188;8.524;2023-07-13T11:30:40;99148.84;;;30.27;27.61
46007;BME280;31738;50.188;8.524;2023-07-13T11:33:13;99145.69;;;30.46;27.88
46007;BME280;31738;50.188;8.524;2023-07-13T11:35:53;99154.41;;;30.62;28.45
46007;BME280;31738;50.188;8.524;2023-07-13T11:38:42;99149.25;;;30.71;27.99
46007;BME280;31738;50.188;8.524;2023-07-13T11:41:23;99154.78;;;30.36;27.73
46007;BME280;31738;50.188;8.524;2023-07-13T11:43:52;99156.66;;;30.01;27.58
46007;BME280;31738;50.188;8.524;2023-07-13T11:46:21;99159.78;;;29.78;28.13
46007;BME280;31738;50.188;8.524;2023-07-13T11:48:47;99147.13;;;29.80;27.74
46007;BME280;31738;50.188;8.524;2023-07-13T11:51:20;99146.44;;;30.15;27.53
46007;BME280;31738;50.188;8.524;2023-07-13T11:53:49;99160.34;;;30.50;27.75
46007;BME280;31738;50.188;8.524;2023-07-13T11:56:15;99160.34;;;30.57;27.50
46007;BME280;31738;50.188;8.524;2023-07-13T11:58:41;99155.19;;;30.52;27.78
46007;BME280;31738;50.188;8.524;2023-07-13T12:01:16;99156.78;;;30.39;27.13
46007;BME280;31738;50.188;8.524;2023-07-13T12:03:44;99149.19;;;30.15;28.02
46007;BME280;31738;50.188;8.524;2023-07-13T12:06:33;99153.53;;;30.09;27.98
46007;BME280;31738;50.188;8.524;2023-07-13T12:09:10;99142.00;;;29.82;28.20
46007;BME280;31738;50.188;8.524;2023-07-13T12:11:40;99163.69;;;29.70;28.16
46007;BME280;31738;50.188;8.524;2023-07-13T12:14:13;99145.44;;;29.62;28.54
46007;BME280;31738;50.188;8.524;2023-07-13T12:16:40;99143.03;;;29.46;28.72
46007;BME280;31738;50.188;8.524;2023-07-13T12:19:17;99147.69;;;29.32;28.92
46007;BME280;31738;50.188;8.524;2023-07-13T12:21:44;99150.72;;;29.13;28.85
46007;BME280;31738;50.188;8.524;2023-07-13T12:24:18;99155.38;;;29.02;29.07
46007;BME280;31738;50.188;8.524;2023-07-13T12:26:50;99156.47;;;28.90;29.48
46007;BME280;31738;50.188;8.524;2023-07-13T12:29:17;99155.63;;;28.83;28.68
46007;BME280;31738;50.188;8.524;2023-07-13T12:31:45;99144.09;;;28.67;28.78
46007;BME280;31738;50.188;8.524;2023-07-13T12:34:19;99146.31;;;28.51;29.82
46007;BME280;31738;50.188;8.524;2023-07-13T12:36:47;99145.06;;;28.45;29.86
46007;BME280;31738;50.188;8.524;2023-07-13T12:39:19;99145.44;;;28.43;29.92
46007;BME280;31738;50.188;8.524;2023-07-13T12:41:46;99147.44;;;28.46;29.93
46007;BME280;31738;50.188;8.524;2023-07-13T12:44:14;99149.38;;;28.46;29.62
46007;BME280;31738;50.188;8.524;2023-07-13T12:46:52;99147.38;;;28.39;30.51
46007;BME280;31738;50.188;8.524;2023-07-13T12:49:23;99150.44;;;28.30;30.42
46007;BME280;31738;50.188;8.524;2023-07-13T12:51:50;99146.44;;;28.24;30.24
46007;BME280;31738;50.188;8.524;2023-07-13T12:54:18;99150.72;;;28.18;30.07
46007;BME280;31738;50.188;8.524;2023-07-13T12:56:45;99154.56;;;28.10;30.07
46007;BME280;31738;50.188;8.524;2023-07-13T12:59:20;99157.72;;;28.09;30.11
46007;BME280;31738;50.188;8.524;2023-07-13T13:01:48;99153.00;;;28.09;30.19
46007;BME280;31738;50.188;8.524;2023-07-13T13:04:15;99138.03;;;28.10;30.29
46007;BME280;31738;50.188;8.524;2023-07-13T13:06:41;99157.72;;;28.09;30.74
46007;BME280;31738;50.188;8.524;2023-07-13T13:09:13;99148.25;;;28.10;31.15
46007;BME280;31738;50.188;8.524;2023-07-13T13:11:40;99147.44;;;28.06;31.21
46007;BME280;31738;50.188;8.524;2023-07-13T13:14:06;99146.63;;;28.02;30.86
46007;BME280;31738;50.188;8.524;2023-07-13T13:16:34;99148.19;;;28.03;31.09
46007;BME280;31738;50.188;8.524;2023-07-13T13:19:10;99138.34;;;28.02;31.35
46007;BME280;31738;50.188;8.524;2023-07-13T13:21:37;99145.78;;;27.98;31.46
46007;BME280;31738;50.188;8.524;2023-07-13T13:24:10;99141.06;;;27.98;31.04
46007;BME280;31738;50.188;8.524;2023-07-13T13:26:36;99135.50;;;27.95;31.60
46007;BME280;31738;50.188;8.524;2023-07-13T13:29:09;99134.34;;;27.99;31.99
46007;BME280;31738;50.188;8.524;2023-07-13T13:31:36;99130.16;;;28.12;31.80
46007;BME280;31738;50.188;8.524;2023-07-13T13:34:02;99133.34;;;28.18;31.77